Latest Weather Observations for St George

IDQ60801

Issued at 9:02 am EST Thursday 18 December 2014 (issued every 30 minutes, with the page automatically refreshed every 10 minutes)

About weather observations | Map of weather stations | Latest weather observations for QLD | Other Formats
Station Details ID: 043109 Name: ST GEORGE AIRPORT Lat: -28.05 Lon: 148.59 Height: 198.5 m
Data from the previous 72 hours. | See also: Recent months at St George
Date/Time
EST
Temp
°C
App
Temp
°C
Dew
Point
Rel
Hum
%
Delta-T
°C
Wind Press
QNH
hPa
Press
MSL
hPa
Rain
since 9 am
mm
Dir
 
Spd
km/h
Gust
km/h
Spd
kts
Gust
kts
18/09:00am 32.8 30.0 15.3 34 11.0 NNW 24 35 13 19 1007.0 1005.7 0.0
18/08:30am 31.1 28.7 15.5 39 9.7 NNW 22 30 12 16 1007.4 - 0.0
18/08:00am 30.3 27.7 16.0 42 9.0 NNW 24 35 13 19 1007.6 - 0.0
18/07:30am 29.8 27.6 15.9 43 8.7 NNW 22 37 12 20 1007.5 - 0.0
18/07:00am 28.1 26.6 16.7 50 7.2 N 20 32 11 17 1007.7 - 0.0
18/06:30am 26.6 24.4 16.8 55 6.1 N 24 35 13 19 1007.3 - 0.0
18/06:00am 25.9 24.5 17.0 58 5.6 N 20 30 11 16 1007.2 1005.9 0.0
18/05:30am 25.3 23.9 17.0 60 5.2 N 20 30 11 16 1006.9 - 0.0
18/05:00am 25.3 24.1 17.0 60 5.2 N 19 28 10 15 1006.6 - 0.0
18/04:30am 25.6 24.8 17.0 59 5.4 N 17 20 9 11 1006.4 - 0.0
18/04:00am 25.9 24.6 16.7 57 5.7 N 19 28 10 15 1006.3 - 0.0
18/03:30am 26.3 25.4 16.8 56 5.9 N 17 30 9 16 1006.1 - 0.0
18/03:00am 26.4 25.1 17.2 57 5.8 N 20 30 11 16 1005.7 1004.5 0.0
18/02:30am 26.5 25.4 17.3 57 5.8 N 19 28 10 15 1005.9 - 0.0
18/02:00am 26.7 25.4 17.2 56 6.0 N 20 33 11 18 1005.7 - 0.0
18/01:30am 27.1 24.8 16.7 53 6.5 N 24 37 13 20 1006.1 - 0.0
18/01:00am 27.7 25.3 16.3 49 7.1 N 24 35 13 19 1006.6 - 0.0
18/12:30am 28.6 25.3 14.1 41 8.8 N 24 33 13 18 1006.6 - 0.0
18/12:00am 29.6 24.9 12.1 34 10.3 N 28 39 15 21 1006.5 1005.2 0.0
 
Date/Time
EST
Temp
°C
App
Temp
°C
Dew
Point
Rel
Hum
%
Delta-T
°C
Wind Press
QNH
hPa
Press
MSL
hPa
Rain
since 9 am
mm
Dir
 
Spd
km/h
Gust
km/h
Spd
kts
Gust
kts
17/11:55pm 30.0 25.2 11.5 32 10.8 N 28 33 15 18 1006.3 - 0.0
17/11:30pm 29.9 28.2 9.9 29 11.4 N 9 11 5 6 1005.2 - 0.0
17/11:00pm 31.1 28.5 9.3 26 12.4 N 13 15 7 8 1005.9 - 0.0
17/10:30pm 30.6 29.2 8.9 26 12.2 NNW 6 9 3 5 1006.2 - 0.0
17/10:00pm 29.8 28.3 9.3 28 11.6 NNW 7 11 4 6 1006.1 - 0.0
17/09:30pm 31.8 30.3 9.3 25 12.8 NNE 7 13 4 7 1006.1 - 0.0
17/09:00pm 32.1 30.2 7.7 22 13.6 NNE 7 9 4 5 1005.6 1004.4 0.0
17/08:30pm 33.6 30.6 6.0 18 15.0 N 11 13 6 7 1005.1 - 0.0
17/08:00pm 33.3 31.2 5.8 18 14.9 SE 6 11 3 6 1004.8 - 0.0
17/07:30pm 35.3 30.5 5.7 16 16.2 S 20 28 11 15 1004.3 - 0.0
17/07:00pm 36.2 33.5 5.5 15 16.9 W 9 13 5 7 1004.0 - 0.0
17/06:30pm 37.3 34.9 5.3 14 17.6 W 7 15 4 8 1003.4 - 0.0
17/06:00pm 38.1 32.0 4.9 13 18.2 SSE 26 35 14 19 1002.2 1000.9 0.0
17/05:30pm 40.0 35.8 4.0 11 19.6 S 15 20 8 11 1001.7 - 0.0
17/05:00pm 39.2 34.9 3.4 11 19.3 SW 15 24 8 13 1001.7 - 0.0
17/04:30pm 40.7 35.3 4.5 11 19.9 SW 22 30 12 16 1001.6 - 0.0
17/04:00pm 41.1 35.5 3.4 10 20.5 WSW 22 33 12 18 1001.6 - 0.0
17/03:30pm 40.2 36.6 2.8 10 20.0 SW 11 17 6 9 1001.8 - 0.0
17/03:00pm 40.3 35.9 2.8 10 20.2 W 15 22 8 12 1002.6 1001.3 0.0
17/02:30pm 39.4 36.3 3.5 11 19.4 SSW 9 24 5 13 1003.2 - 0.0
17/02:00pm 38.5 34.7 4.1 12 18.6 S 13 19 7 10 1003.7 - 0.0
17/01:30pm 38.7 35.3 4.2 12 18.7 SSE 11 20 6 11 1003.9 - 0.0
17/01:00pm 38.9 34.6 3.1 11 19.1 SSW 15 20 8 11 1004.1 - 0.0
17/12:30pm 38.9 34.1 4.4 12 18.8 W 19 28 10 15 1004.3 - 0.0
17/12:00pm 39.2 35.1 4.6 12 19.0 SW 15 30 8 16 1004.7 1003.5 0.0
17/11:30am 38.4 33.7 5.1 13 18.3 NW 19 26 10 14 1004.9 - 0.0
17/11:00am 38.0 33.2 4.8 13 18.1 SW 19 24 10 13 1005.3 - 0.0
17/10:30am 37.1 33.4 8.0 17 16.6 WNW 17 28 9 15 1005.6 - 0.0
17/10:00am 36.0 32.5 10.2 21 15.1 NW 19 30 10 16 1005.9 - 0.0
17/09:30am 35.2 31.5 11.6 24 14.1 N 22 33 12 18 1006.0 - 0.0
17/09:00am 34.1 30.5 11.9 26 13.3 NNW 22 30 12 16 1006.2 1004.9 0.0
17/08:30am 33.0 29.5 12.1 28 12.5 NNW 22 30 12 16 1006.3 - 0.0
17/08:00am 31.6 27.6 12.9 32 11.2 N 26 35 14 19 1006.4 - 0.0
17/07:30am 29.9 26.3 13.2 36 10.0 N 24 32 13 17 1006.4 - 0.0
17/07:00am 28.3 25.6 14.5 43 8.4 N 22 32 12 17 1006.3 - 0.0
17/06:30am 26.9 24.8 14.6 46 7.4 N 19 30 10 16 1005.9 - 0.0
17/06:00am 25.7 23.9 14.5 50 6.8 N 17 22 9 12 1005.4 1004.2 0.0
17/05:30am 24.5 23.4 14.3 53 6.1 N 13 17 7 9 1005.2 - 0.0
17/05:00am 24.7 23.9 13.9 51 6.4 N 11 17 6 9 1004.9 - 0.0
17/04:30am 25.2 23.9 13.7 49 6.8 N 13 19 7 10 1004.5 - 0.0
17/04:00am 26.0 24.3 13.5 46 7.4 N 15 22 8 12 1004.2 - 0.0
17/03:30am 26.3 24.7 13.8 46 7.5 N 15 20 8 11 1004.3 - 0.0
17/03:00am 26.6 25.2 13.3 43 7.9 N 13 19 7 10 1004.0 1002.8 0.0
17/02:30am 26.9 25.0 12.9 42 8.2 N 15 20 8 11 1003.8 - 0.0
17/02:00am 27.7 25.6 12.5 39 8.9 N 15 24 8 13 1003.7 - 0.0
17/01:30am 28.3 26.8 11.8 36 9.6 NNW 11 15 6 8 1004.0 - 0.0
17/01:00am 28.5 26.5 11.6 35 9.8 N 13 19 7 10 1003.8 - 0.0
17/12:30am 28.2 26.8 12.1 37 9.4 N 11 15 6 8 1004.1 - 0.0
17/12:00am 28.2 26.5 12.5 37 9.3 N 13 17 7 9 1004.4 1003.2 0.0
 
Date/Time
EST
Temp
°C
App
Temp
°C
Dew
Point
Rel
Hum
%
Delta-T
°C
Wind Press
QNH
hPa
Press
MSL
hPa
Rain
since 9 am
mm
Dir
 
Spd
km/h
Gust
km/h
Spd
kts
Gust
kts
16/11:30pm 28.2 26.3 12.9 38 9.1 N 15 19 8 10 1004.3 - 0.0
16/11:00pm 28.5 26.4 12.4 37 9.5 N 15 20 8 11 1004.6 - 0.0
16/10:30pm 29.6 27.3 11.6 33 10.5 N 15 19 8 10 1004.8 - 0.0
16/10:00pm 29.9 26.9 11.9 33 10.6 N 19 24 10 13 1004.9 - 0.0
16/09:30pm 29.6 27.0 12.1 34 10.3 N 17 24 9 13 1005.6 - 0.0
16/09:00pm 30.2 27.2 12.1 32 10.7 NNW 19 33 10 18 1006.6 1005.3 0.0
16/08:30pm 28.7 27.5 14.1 40 8.8 N 13 20 7 11 1006.5 - 0.0
16/08:00pm 28.4 27.8 14.6 43 8.4 NNE 11 13 6 7 1006.1 - 0.0
16/07:30pm 28.6 29.0 14.8 43 8.4 NNE 6 11 3 6 1006.4 - 0.0
16/07:00pm 28.9 28.4 13.9 39 9.1 SSW 9 13 5 7 1006.7 - 0.0
16/06:30pm 29.3 26.8 13.5 38 9.5 SW 19 28 10 15 1006.6 - 0.0
16/06:00pm 28.8 24.8 14.2 40 8.9 SW 28 37 15 20 1006.1 1004.8 0.0
16/05:30pm 29.0 24.0 14.0 39 9.1 SW 33 48 18 26 1005.2 - 0.0
16/05:00pm 29.7 20.7 11.7 33 10.5 WSW 50 78 27 42 1004.1 - 0.0
16/04:46pm 34.4 22.2 5.8 17 15.6 WSW 59 78 32 42 1003.2 - 0.0
16/04:44pm 38.8 31.5 4.3 12 18.8 W 32 61 17 33 1002.8 - 0.0
16/04:30pm 39.3 32.8 4.7 12 19.0 W 28 37 15 20 1001.5 - 0.0
16/04:00pm 39.5 34.8 6.0 13 18.8 NW 20 32 11 17 1001.5 - 0.0
16/03:30pm 40.1 33.8 4.0 11 19.7 WNW 26 37 14 20 1001.8 - 0.0
16/03:00pm 39.5 34.2 4.8 12 19.2 NW 22 37 12 20 1002.2 1000.9 0.0
16/02:30pm 40.2 35.4 5.4 12 19.4 WNW 20 35 11 19 1002.6 - 0.0
16/02:00pm 39.5 33.8 4.8 12 19.1 WNW 24 37 13 20 1003.4 - 0.0
16/01:30pm 39.7 33.3 5.0 12 19.2 WNW 28 39 15 21 1004.0 - 0.0
16/01:00pm 38.4 32.5 4.0 12 18.6 NW 24 39 13 21 1004.3 - 0.0
16/12:30pm 38.9 32.7 4.4 12 18.8 NW 26 41 14 22 1005.0 - 0.0
16/12:00pm 38.4 32.5 4.0 12 18.7 NNW 24 41 13 22 1005.4 1004.2 0.0
16/11:30am 38.2 32.1 2.6 11 18.8 NW 24 41 13 22 1006.1 - 0.0
16/11:00am 37.4 31.8 3.2 12 18.2 NNW 22 35 12 19 1006.2 - 0.0
16/10:30am 37.2 31.7 4.2 13 17.8 NNW 22 35 12 19 1006.4 - 0.0
16/10:00am 36.6 31.4 3.7 13 17.5 NNW 20 30 11 16 1006.7 - 0.0
16/09:30am 35.7 29.8 4.1 14 16.9 N 24 35 13 19 1006.9 - 0.0
16/09:00am 34.7 30.9 7.7 19 15.2 N 17 24 9 13 1007.2 1005.9 0.0
16/08:30am 32.9 29.7 8.4 22 13.8 N 15 20 8 11 1007.5 - 0.0
16/08:00am 31.1 27.8 8.2 24 12.7 N 15 19 8 10 1007.6 - 0.0
16/07:30am 29.1 26.1 7.6 26 11.7 N 13 19 7 10 1008.1 - 0.0
16/07:00am 27.1 23.6 7.0 28 10.7 N 15 22 8 12 1007.9 - 0.0
16/06:30am 25.4 22.3 7.1 31 9.7 N 13 19 7 10 1008.2 - 0.0
16/06:00am 23.7 20.8 6.5 33 8.9 N 11 13 6 7 1007.8 1006.5 0.0
16/05:30am 22.8 19.2 6.6 35 8.4 NNW 15 20 8 11 1007.4 - 0.0
16/05:00am 23.2 19.9 6.5 34 8.6 N 13 17 7 9 1006.7 - 0.0
16/04:30am 22.4 19.4 6.2 35 8.3 N 11 13 6 7 1006.5 - 0.0
16/04:00am 22.3 19.4 6.5 36 8.1 NNE 11 13 6 7 1006.3 - 0.0
16/03:30am 22.4 19.7 5.8 34 8.4 N 9 13 5 7 1006.4 - 0.0
16/03:00am 23.4 20.5 4.9 30 9.3 N 9 11 5 6 1006.4 1005.1 0.0
16/02:30am 23.3 20.6 5.7 32 9.0 NNE 9 11 5 6 1006.6 - 0.0
16/02:00am 24.1 21.3 5.0 29 9.7 NNE 9 13 5 7 1006.8 - 0.0
16/01:30am 24.5 21.2 4.8 28 10.0 NNE 11 13 6 7 1007.0 - 0.0
16/01:00am 24.2 21.4 5.1 29 9.7 NE 9 13 5 7 1007.4 - 0.0
16/12:30am 22.8 20.7 8.1 39 7.8 NE 9 13 5 7 1007.7 - 0.0
16/12:00am 22.7 20.9 9.5 43 7.2 NE 9 13 5 7 1008.0 1006.7 0.0
 
Date/Time
EST
Temp
°C
App
Temp
°C
Dew
Point
Rel
Hum
%
Delta-T
°C
Wind Press
QNH
hPa
Press
MSL
hPa
Rain
since 9 am
mm
Dir
 
Spd
km/h
Gust
km/h
Spd
kts
Gust
kts
15/11:30pm 22.4 21.1 9.9 45 6.8 NE 7 9 4 5 1008.0 - 0.0
15/11:00pm 23.3 23.0 8.6 39 7.9 CALM 0 0 0 0 1008.5 - 0.0
15/10:30pm 23.9 22.8 8.3 37 8.4 NNE 4 7 2 4 1008.6 - 0.0
15/10:00pm 24.0 22.4 8.0 36 8.5 N 6 7 3 4 1008.6 - 0.0
15/09:30pm 25.0 22.9 6.7 31 9.6 NNW 7 9 4 5 1008.5 - 0.0
15/09:00pm 26.1 24.5 6.2 28 10.4 NNE 4 7 2 4 1008.2 1007.0 0.0
15/08:30pm 26.9 25.9 5.8 26 11.0 CALM 0 0 0 0 1008.0 - 0.0
15/08:00pm 28.5 27.1 3.4 20 12.7 CALM 0 0 0 0 1007.9 - 0.0
15/07:30pm 30.4 27.6 1.8 16 14.3 SE 6 7 3 4 1007.8 - 0.0
15/07:00pm 32.6 29.7 1.7 14 15.6 S 6 9 3 5 1007.7 - 0.0
15/06:30pm 34.5 30.6 1.0 12 16.9 SSW 11 13 6 7 1007.4 - 0.0
15/06:00pm 35.3 30.5 0.4 11 17.6 SSW 15 20 8 11 1007.2 1005.9 0.0
15/05:30pm 35.5 33.0 1.8 12 17.3 SW 4 13 2 7 1007.0 - 0.0
15/05:00pm 35.9 33.1 3.2 13 17.2 SSW 7 15 4 8 1006.8 - 0.0
15/04:30pm 35.9 30.3 3.2 13 17.2 SW 22 32 12 17 1006.7 - 0.0
15/04:00pm 36.1 32.8 4.4 14 17.0 SE 11 26 6 14 1006.6 - 0.0
15/03:30pm 34.9 30.3 3.5 14 16.5 S 17 28 9 15 1007.2 - 0.0
15/03:00pm 34.2 30.6 2.9 14 16.3 SW 11 20 6 11 1007.5 1006.2 0.0
15/02:30pm 34.7 30.2 4.3 15 16.2 SSE 17 28 9 15 1007.7 - 0.0
15/02:00pm 35.8 31.8 5.1 15 16.7 WSW 15 28 8 15 1008.1 - 0.0
15/01:30pm 34.8 29.4 4.4 15 16.2 S 22 32 12 17 1008.6 - 0.0
15/01:00pm 34.0 30.2 3.7 15 15.9 SW 13 22 7 12 1008.9 - 0.0
15/12:30pm 33.4 29.3 2.3 14 15.9 SSW 13 26 7 14 1009.2 - 0.0
15/12:00pm 33.0 29.2 3.9 16 15.3 NW 13 32 7 17 1009.5 1008.3 0.0
15/11:30am 33.7 28.9 4.4 16 15.5 WSW 19 26 10 14 1009.8 - 0.0
15/11:00am 32.6 29.5 3.5 16 15.1 WSW 9 17 5 9 1010.0 - 0.0
15/10:30am 33.2 30.3 6.5 19 14.6 WSW 11 20 6 11 1010.0 - 0.0
15/10:00am 31.5 28.5 5.8 20 13.8 WSW 11 22 6 12 1010.2 - 0.0
15/09:30am 30.5 27.4 5.7 21 13.2 WNW 11 20 6 11 1010.3 - 0.0

Other Formats:

Comma delimited format used in spreadsheet applications
http://www.bom.gov.au/fwo/IDQ60801/IDQ60801.94517.axf

JavaScript Object Notation format (JSON) in row-major order
http://www.bom.gov.au/fwo/IDQ60801/IDQ60801.94517.json